createdAt,value
2023-02-02T00:01:53.129Z,2.33
2023-02-02T00:04:59.044Z,2.33
2023-02-02T00:08:04.355Z,2.36
2023-02-02T00:11:09.589Z,2.37
2023-02-02T00:14:15.530Z,2.38
2023-02-02T00:17:21.043Z,2.37
2023-02-02T00:20:26.231Z,2.39
2023-02-02T00:23:31.605Z,2.38
2023-02-02T00:26:37.204Z,2.37
2023-02-02T00:29:42.653Z,2.36
2023-02-02T00:32:50.755Z,2.35
2023-02-02T00:35:56.030Z,2.32
2023-02-02T00:39:01.262Z,2.30
2023-02-02T00:42:06.802Z,2.28
2023-02-02T00:45:17.497Z,2.28
2023-02-02T00:48:25.923Z,2.29
2023-02-02T00:51:31.307Z,2.30
2023-02-02T00:54:36.905Z,2.31
2023-02-02T00:57:44.367Z,2.33
2023-02-02T01:00:49.933Z,2.35
2023-02-02T01:03:55.468Z,2.36
2023-02-02T01:07:01.523Z,2.35
2023-02-02T01:10:08.568Z,2.36
2023-02-02T01:13:13.865Z,2.35
2023-02-02T01:16:19.220Z,2.35
2023-02-02T01:19:24.482Z,2.35
2023-02-02T01:22:30.883Z,2.37
2023-02-02T01:25:38.528Z,2.39
2023-02-02T01:28:44.107Z,2.40
2023-02-02T01:31:49.763Z,2.40
2023-02-02T01:34:55.172Z,2.40
2023-02-02T01:38:01.240Z,2.40
2023-02-02T01:41:07.296Z,2.39
2023-02-02T01:44:29.943Z,2.38
2023-02-02T01:47:37.756Z,2.40
2023-02-02T01:50:43.678Z,2.40
2023-02-02T01:53:50.743Z,2.40
2023-02-02T01:56:58.648Z,2.41
2023-02-02T02:00:06.672Z,2.44
2023-02-02T02:03:20.055Z,2.46
2023-02-02T02:06:26.448Z,2.47
2023-02-02T02:09:31.854Z,2.48
2023-02-02T02:12:37.456Z,2.48
2023-02-02T02:16:04.177Z,2.49
2023-02-02T02:19:15.917Z,2.49
2023-02-02T02:22:39.873Z,2.49
2023-02-02T02:26:15.380Z,2.48
2023-02-02T02:29:33.311Z,2.43
2023-02-02T02:32:41.554Z,2.37
2023-02-02T02:35:53.293Z,2.30
2023-02-02T02:39:09.446Z,2.24
2023-02-02T02:42:17.743Z,2.17
2023-02-02T02:45:25.484Z,2.11
2023-02-02T02:48:33.660Z,2.05
2023-02-02T02:51:45.618Z,1.98
2023-02-02T02:54:54.813Z,1.91
2023-02-02T02:58:05.671Z,1.86
2023-02-02T03:01:13.606Z,1.77
2023-02-02T03:04:22.568Z,1.72
2023-02-02T03:07:30.765Z,1.67
2023-02-02T03:10:37.010Z,1.66
2023-02-02T03:13:42.890Z,1.64
2023-02-02T03:16:48.337Z,1.65
2023-02-02T03:19:53.696Z,1.65
2023-02-02T03:22:59.066Z,1.66
2023-02-02T03:26:04.625Z,1.68
2023-02-02T03:29:10.023Z,1.72
2023-02-02T03:32:15.327Z,1.74
2023-02-02T03:35:21.916Z,1.76
2023-02-02T03:38:27.343Z,1.79
2023-02-02T03:41:32.797Z,1.81
2023-02-02T03:44:38.712Z,1.82
2023-02-02T03:47:44.218Z,1.84
2023-02-02T03:50:49.670Z,1.85
2023-02-02T03:53:54.994Z,1.86
2023-02-02T03:57:00.347Z,1.87
2023-02-02T04:00:06.367Z,1.87
2023-02-02T04:03:17.406Z,1.88
2023-02-02T04:06:22.926Z,1.89
2023-02-02T04:09:28.433Z,1.91
2023-02-02T04:12:34.111Z,1.92
2023-02-02T04:15:39.652Z,1.94
2023-02-02T04:18:44.935Z,1.95
2023-02-02T04:21:50.203Z,1.95
2023-02-02T04:24:55.799Z,1.98
2023-02-02T04:28:01.093Z,1.99
2023-02-02T04:31:06.790Z,2.02
2023-02-02T04:34:12.405Z,2.05
2023-02-02T04:37:17.679Z,2.05
2023-02-02T04:40:22.914Z,2.05
2023-02-02T04:43:28.490Z,2.05
2023-02-02T04:46:33.921Z,2.06
2023-02-02T04:49:39.564Z,2.07
2023-02-02T04:52:45.047Z,2.07
2023-02-02T04:55:50.356Z,2.05
2023-02-02T04:58:55.941Z,2.04
2023-02-02T05:02:02.247Z,2.03
2023-02-02T05:05:10.831Z,2.03
2023-02-02T05:08:16.246Z,2.04
2023-02-02T05:11:23.087Z,2.07
2023-02-02T05:14:28.477Z,2.09
2023-02-02T05:17:34.218Z,2.09
2023-02-02T05:20:39.535Z,2.08
2023-02-02T05:23:44.851Z,2.10
2023-02-02T05:26:50.308Z,2.10
2023-02-02T05:29:55.623Z,2.09
2023-02-02T05:33:01.041Z,2.08
2023-02-02T05:36:07.198Z,2.04
2023-02-02T05:39:12.685Z,2.01
2023-02-02T05:42:18.070Z,1.99
2023-02-02T05:45:23.916Z,1.98
2023-02-02T05:48:29.789Z,1.99
2023-02-02T05:51:37.118Z,1.99
2023-02-02T05:54:42.612Z,2.00
2023-02-02T05:57:48.040Z,2.00
2023-02-02T06:00:56.212Z,1.99
2023-02-02T06:04:01.936Z,1.99
2023-02-02T06:07:07.252Z,2.00
2023-02-02T06:10:12.935Z,2.01
2023-02-02T06:13:18.437Z,2.00
2023-02-02T06:16:23.894Z,1.96
2023-02-02T06:19:29.136Z,1.91
2023-02-02T06:22:34.551Z,1.86
2023-02-02T06:25:40.231Z,1.81
2023-02-02T06:28:49.626Z,1.79
2023-02-02T06:31:55.117Z,1.79
2023-02-02T06:35:00.712Z,1.80
2023-02-02T06:38:06.322Z,1.82
2023-02-02T06:41:12.207Z,1.84
2023-02-02T06:44:19.387Z,1.85
2023-02-02T06:47:26.821Z,1.84
2023-02-02T06:50:32.683Z,1.83
2023-02-02T06:53:38.094Z,1.81
2023-02-02T06:56:43.306Z,1.80
2023-02-02T06:59:48.864Z,1.80
2023-02-02T07:02:54.524Z,1.81
2023-02-02T07:05:59.842Z,1.81
2023-02-02T07:09:05.292Z,1.81
2023-02-02T07:12:10.881Z,1.85
2023-02-02T07:15:16.332Z,1.88
2023-02-02T07:18:22.553Z,1.89
2023-02-02T07:21:28.349Z,1.89
2023-02-02T07:24:33.942Z,1.91
2023-02-02T07:27:39.454Z,1.91
2023-02-02T07:30:44.680Z,1.92
2023-02-02T07:33:50.151Z,1.94
2023-02-02T07:36:55.425Z,1.92
2023-02-02T07:40:00.834Z,1.90
2023-02-02T07:43:06.223Z,1.86
2023-02-02T07:46:14.483Z,1.81
2023-02-02T07:49:20.433Z,1.76
2023-02-02T07:52:25.939Z,1.74
2023-02-02T07:55:31.435Z,1.75
2023-02-02T07:58:37.509Z,1.74
2023-02-02T08:01:43.352Z,1.70
2023-02-02T08:04:48.676Z,1.65
2023-02-02T08:07:54.419Z,1.62
2023-02-02T08:10:59.778Z,1.61
2023-02-02T08:14:05.744Z,1.61
2023-02-02T08:17:11.283Z,1.61
2023-02-02T08:20:16.674Z,1.63
2023-02-02T08:23:23.700Z,1.66
2023-02-02T08:26:30.657Z,1.70
2023-02-02T08:29:36.631Z,1.78
2023-02-02T08:32:44.343Z,1.86
2023-02-02T08:35:49.736Z,1.95
2023-02-02T08:38:55.093Z,1.98
2023-02-02T08:42:00.588Z,2.02
2023-02-02T08:46:01.460Z,2.04
2023-02-02T08:48:31.920Z,2.06
2023-02-02T08:51:40.702Z,2.08
2023-02-02T08:54:46.599Z,2.05
2023-02-02T08:57:52.214Z,2.04
2023-02-02T09:01:04.724Z,2.02
2023-02-02T09:04:18.260Z,2.04
2023-02-02T09:07:23.552Z,2.06
2023-02-02T09:10:36.572Z,2.15
2023-02-02T09:13:42.631Z,2.19
2023-02-02T09:16:47.961Z,2.19
2023-02-02T09:19:53.371Z,2.16
2023-02-02T09:22:58.724Z,2.13
2023-02-02T09:26:11.405Z,2.18
2023-02-02T09:29:20.105Z,2.33
2023-02-02T09:32:25.355Z,2.38
2023-02-02T09:35:30.740Z,2.47
2023-02-02T09:38:36.516Z,2.48
2023-02-02T09:41:56.023Z,2.54
2023-02-02T09:45:14.682Z,2.57
2023-02-02T09:48:45.359Z,2.68
2023-02-02T09:51:56.804Z,2.83
2023-02-02T09:55:04.729Z,2.98
2023-02-02T09:58:13.893Z,3.10
2023-02-02T10:01:21.321Z,3.27
2023-02-02T10:04:28.787Z,3.42
2023-02-02T10:07:37.459Z,3.48
2023-02-02T10:10:45.145Z,3.53
2023-02-02T10:13:51.941Z,3.52
2023-02-02T10:16:58.555Z,3.36
2023-02-02T10:20:07.606Z,3.37
2023-02-02T10:23:22.614Z,3.38
2023-02-02T10:26:32.263Z,3.32
2023-02-02T10:29:49.091Z,3.35
2023-02-02T10:33:01.443Z,3.41
2023-02-02T10:36:13.008Z,3.49
2023-02-02T10:39:22.043Z,3.70
2023-02-02T10:42:31.202Z,3.82
2023-02-02T10:45:37.408Z,3.83
2023-02-02T10:48:44.491Z,3.70
2023-02-02T10:51:54.437Z,3.64
2023-02-02T10:55:04.432Z,3.59
2023-02-02T10:58:16.766Z,3.67
2023-02-02T11:01:23.028Z,3.63
2023-02-02T11:04:47.890Z,3.54
2023-02-02T11:07:54.863Z,3.49
2023-02-02T11:11:11.134Z,3.52
2023-02-02T11:14:18.948Z,3.60
2023-02-02T11:17:25.142Z,3.67
2023-02-02T11:20:35.114Z,3.72
2023-02-02T11:23:40.456Z,3.66
2023-02-02T11:26:47.471Z,3.69
2023-02-02T11:29:54.454Z,3.80
2023-02-02T11:33:00.003Z,3.82
2023-02-02T11:36:06.533Z,3.83
2023-02-02T11:39:17.913Z,3.83
2023-02-02T11:42:24.254Z,3.78
2023-02-02T11:45:31.754Z,3.77
2023-02-02T11:48:38.743Z,3.73
2023-02-02T11:51:44.905Z,3.72
2023-02-02T11:54:51.382Z,3.69
2023-02-02T11:58:18.975Z,3.50
2023-02-02T12:01:26.434Z,3.13
2023-02-02T12:04:32.607Z,2.92
2023-02-02T12:07:38.361Z,2.73
2023-02-02T12:10:47.975Z,2.64
2023-02-02T12:14:00.335Z,2.68
2023-02-02T12:17:14.401Z,2.73
2023-02-02T12:20:28.438Z,2.79
2023-02-02T12:23:39.655Z,2.82
2023-02-02T12:26:47.843Z,2.84
2023-02-02T12:29:59.673Z,2.95
2023-02-02T12:33:14.326Z,2.92
2023-02-02T12:36:24.788Z,2.94
2023-02-02T12:39:34.337Z,2.95
2023-02-02T12:42:48.480Z,3.01
2023-02-02T12:45:59.704Z,3.07
2023-02-02T12:49:18.068Z,3.08
2023-02-02T12:52:31.016Z,3.10
2023-02-02T12:55:42.360Z,3.05
2023-02-02T12:58:53.201Z,3.03
2023-02-02T13:02:04.589Z,3.17
2023-02-02T13:08:53.141Z,3.20
2023-02-02T13:12:02.980Z,3.16
2023-02-02T13:15:11.231Z,3.03
2023-02-02T13:18:20.828Z,2.93
2023-02-02T13:21:28.656Z,2.85
2023-02-02T13:24:36.053Z,2.80
2023-02-02T13:27:41.512Z,2.71
2023-02-02T13:30:48.658Z,2.61
2023-02-02T13:33:57.370Z,2.54
2023-02-02T13:37:06.067Z,2.47
2023-02-02T13:40:21.831Z,2.44
2023-02-02T13:43:34.004Z,2.48
2023-02-02T13:46:44.327Z,2.46
2023-02-02T13:49:52.163Z,2.48
2023-02-02T13:53:06.703Z,2.45
2023-02-02T13:56:20.709Z,2.43
2023-02-02T13:59:32.286Z,2.37
2023-02-02T14:02:42.558Z,2.35
2023-02-02T14:06:02.987Z,2.37
2023-02-02T14:09:17.679Z,2.39
2023-02-02T14:12:33.307Z,2.38
2023-02-02T14:15:39.999Z,2.33
2023-02-02T14:19:01.431Z,2.31
2023-02-02T14:22:17.779Z,2.31
2023-02-02T14:25:41.554Z,2.25
2023-02-02T14:28:49.079Z,2.13
2023-02-02T14:31:55.662Z,2.02
2023-02-02T14:35:01.317Z,1.94
2023-02-02T14:38:09.328Z,1.81
2023-02-02T14:41:37.740Z,1.70
2023-02-02T14:44:56.565Z,1.59
2023-02-02T14:48:02.961Z,1.44
2023-02-02T14:51:16.623Z,1.19
2023-02-02T14:54:24.411Z,0.81
2023-02-02T14:57:30.188Z,0.54
2023-02-02T15:00:36.543Z,0.41
2023-02-02T15:03:58.069Z,0.35
2023-02-02T15:07:19.920Z,0.34
2023-02-02T15:10:42.626Z,0.36
2023-02-02T15:13:51.255Z,0.39
2023-02-02T15:16:57.101Z,0.41
2023-02-02T15:20:07.454Z,0.46
2023-02-02T15:23:23.346Z,0.49
2023-02-02T15:26:32.429Z,0.53
2023-02-02T15:29:41.604Z,0.56
2023-02-02T15:32:47.905Z,0.57
2023-02-02T15:35:54.037Z,0.58
2023-02-02T15:39:02.560Z,0.58
2023-02-02T15:42:27.231Z,0.58
2023-02-02T15:45:40.577Z,0.57
2023-02-02T15:48:45.851Z,0.56
2023-02-02T15:51:52.018Z,0.55
2023-02-02T15:54:58.095Z,0.54
2023-02-02T15:58:03.607Z,0.55
2023-02-02T16:01:16.601Z,0.55
2023-02-02T16:04:23.760Z,0.56
2023-02-02T16:07:31.179Z,0.56
2023-02-02T16:10:36.762Z,0.57
2023-02-02T16:13:43.132Z,0.59
2023-02-02T16:16:49.741Z,0.52
2023-02-02T16:20:00.471Z,0.44
2023-02-02T16:23:07.216Z,0.35
2023-02-02T16:26:16.499Z,0.29
2023-02-02T16:29:22.000Z,0.25
2023-02-02T16:32:31.576Z,0.21
2023-02-02T16:35:38.555Z,0.17
2023-02-02T16:38:44.235Z,0.12
2023-02-02T16:41:50.726Z,0.09
2023-02-02T16:44:56.706Z,0.07
2023-02-02T16:48:21.312Z,0.07
2023-02-02T16:51:28.107Z,0.06
2023-02-02T16:54:33.667Z,0.06
2023-02-02T16:57:39.717Z,0.05
2023-02-02T17:00:59.480Z,0.05
2023-02-02T17:04:18.936Z,0.05
2023-02-02T17:07:24.776Z,0.02
2023-02-02T17:10:32.145Z,-0.02
2023-02-02T17:13:41.948Z,-0.07
2023-02-02T17:16:47.374Z,-0.08
2023-02-02T17:19:52.804Z,-0.07
2023-02-02T17:23:00.938Z,-0.08
2023-02-02T17:26:07.381Z,-0.11
2023-02-02T17:29:13.750Z,-0.16
2023-02-02T17:32:19.143Z,-0.22
2023-02-02T17:35:25.788Z,-0.30
2023-02-02T17:38:32.570Z,-0.41
2023-02-02T17:41:39.262Z,-0.53
2023-02-02T17:44:44.605Z,-0.66
2023-02-02T17:47:50.115Z,-0.75
2023-02-02T17:50:55.459Z,-0.79
2023-02-02T17:54:00.991Z,-0.82
2023-02-02T17:57:06.517Z,-0.84
2023-02-02T18:00:13.764Z,-0.86
2023-02-02T18:03:22.024Z,-0.89
2023-02-02T18:06:27.702Z,-0.91
2023-02-02T18:09:34.308Z,-0.92
2023-02-02T18:12:39.729Z,-0.92
2023-02-02T18:15:45.372Z,-0.96
2023-02-02T18:18:50.807Z,-1.02
2023-02-02T18:21:56.263Z,-1.10
2023-02-02T18:25:01.640Z,-1.22
2023-02-02T18:28:07.157Z,-1.34
2023-02-02T18:31:13.746Z,-1.43
2023-02-02T18:34:19.321Z,-1.52
2023-02-02T18:37:26.252Z,-1.56
2023-02-02T18:40:31.635Z,-1.57
2023-02-02T18:43:36.955Z,-1.61
2023-02-02T18:46:42.373Z,-1.63
2023-02-02T18:49:47.839Z,-1.66
2023-02-02T18:52:53.291Z,-1.70
2023-02-02T18:55:58.768Z,-1.71
2023-02-02T18:59:06.039Z,-1.72
2023-02-02T19:02:14.139Z,-1.74
2023-02-02T19:05:36.837Z,-1.76
2023-02-02T19:08:42.193Z,-1.82
2023-02-02T19:11:48.683Z,-1.90
2023-02-02T19:14:54.047Z,-1.96
2023-02-02T19:17:59.537Z,-2.01
2023-02-02T19:21:07.440Z,-2.08
2023-02-02T19:24:13.980Z,-2.16
2023-02-02T19:27:20.540Z,-2.22
2023-02-02T19:30:26.330Z,-2.30
2023-02-02T19:33:35.386Z,-2.36
2023-02-02T19:36:46.287Z,-2.41
2023-02-02T19:39:51.702Z,-2.52
2023-02-02T19:43:00.451Z,-2.65
2023-02-02T19:46:15.418Z,-2.77
2023-02-02T19:49:24.679Z,-2.89
2023-02-02T19:52:30.063Z,-2.99
2023-02-02T19:55:37.033Z,-3.07
2023-02-02T19:58:42.376Z,-3.13
2023-02-02T20:01:50.613Z,-3.16
2023-02-02T20:04:59.859Z,-3.19
2023-02-02T20:08:09.518Z,-3.22
2023-02-02T20:11:24.260Z,-3.22
2023-02-02T20:14:30.670Z,-3.17
2023-02-02T20:17:37.541Z,-3.14
2023-02-02T20:20:44.145Z,-3.13
2023-02-02T20:23:49.522Z,-3.12
2023-02-02T20:26:56.680Z,-3.14
2023-02-02T20:30:18.372Z,-3.15
2023-02-02T20:33:25.165Z,-3.12
2023-02-02T20:36:36.827Z,-3.08
2023-02-02T20:39:43.132Z,-3.01
2023-02-02T20:42:48.541Z,-2.94
2023-02-02T20:45:53.867Z,-2.91
2023-02-02T20:48:59.147Z,-2.93
2023-02-02T20:52:07.986Z,-2.93
2023-02-02T20:55:14.057Z,-2.95
2023-02-02T20:58:21.962Z,-2.97
2023-02-02T21:01:27.649Z,-3.00
2023-02-02T21:04:33.658Z,-3.03
2023-02-02T21:07:39.122Z,-3.02
2023-02-02T21:10:44.534Z,-3.01
2023-02-02T21:13:50.265Z,-2.94
2023-02-02T21:17:09.055Z,-2.84
2023-02-02T21:20:19.998Z,-2.76
2023-02-02T21:23:25.355Z,-2.68
2023-02-02T21:26:31.109Z,-2.62
2023-02-02T21:29:36.520Z,-2.60
2023-02-02T21:32:41.848Z,-2.59
2023-02-02T21:35:47.438Z,-2.61
2023-02-02T21:38:52.869Z,-2.65
2023-02-02T21:42:10.943Z,-2.65
2023-02-02T21:45:28.514Z,-2.63
2023-02-02T21:48:38.736Z,-2.62
2023-02-02T21:51:44.057Z,-2.65
2023-02-02T21:54:49.706Z,-2.68
2023-02-02T21:57:55.190Z,-2.73
2023-02-02T22:01:03.611Z,-2.79
2023-02-02T22:04:17.097Z,-2.87
2023-02-02T22:07:22.417Z,-2.93
2023-02-02T22:10:33.638Z,-2.95
2023-02-02T22:13:39.039Z,-3.00
2023-02-02T22:16:48.794Z,-3.05
2023-02-02T22:19:56.549Z,-3.10
2023-02-02T22:23:02.317Z,-3.13
2023-02-02T22:26:17.497Z,-3.17
2023-02-02T22:29:24.637Z,-3.24
2023-02-02T22:32:30.329Z,-3.29
2023-02-02T22:35:35.812Z,-3.35
2023-02-02T22:38:41.128Z,-3.37
2023-02-02T22:41:46.369Z,-3.40
2023-02-02T22:44:51.764Z,-3.38
2023-02-02T22:47:57.160Z,-3.35
2023-02-02T22:51:02.459Z,-3.37
2023-02-02T22:54:08.112Z,-3.40
2023-02-02T22:57:13.531Z,-3.44
2023-02-02T23:00:20.621Z,-3.45
2023-02-02T23:03:26.183Z,-3.48
2023-02-02T23:06:31.422Z,-3.48
2023-02-02T23:09:36.822Z,-3.44
2023-02-02T23:12:42.812Z,-3.40
2023-02-02T23:15:48.224Z,-3.36
2023-02-02T23:18:53.745Z,-3.33
2023-02-02T23:21:59.005Z,-3.29
2023-02-02T23:25:04.584Z,-3.26
2023-02-02T23:28:10.762Z,-3.22
2023-02-02T23:31:16.294Z,-3.18
2023-02-02T23:34:21.492Z,-3.15
2023-02-02T23:37:26.840Z,-3.13
2023-02-02T23:40:32.156Z,-3.10
2023-02-02T23:43:37.417Z,-3.06
2023-02-02T23:46:43.005Z,-3.02
2023-02-02T23:49:48.600Z,-2.98
2023-02-02T23:52:54.071Z,-2.96
2023-02-02T23:55:59.489Z,-2.94
2023-02-02T23:59:04.818Z,-2.90
